sensor_id;sensor_type;location;lat;lon;timestamp;temperature;humidity
24426;DHT22;12611;44.446;26.000;2024-03-23T00:54:22;10.20;74.00
24426;DHT22;12611;44.446;26.000;2024-03-23T00:56:50;10.20;74.10
24426;DHT22;12611;44.446;26.000;2024-03-23T00:59:17;10.20;74.30
24426;DHT22;12611;44.446;26.000;2024-03-23T01:01:44;10.20;74.40
24426;DHT22;12611;44.446;26.000;2024-03-23T01:04:11;10.20;74.70
24426;DHT22;12611;44.446;26.000;2024-03-23T01:06:39;10.20;75.80
24426;DHT22;12611;44.446;26.000;2024-03-23T01:09:05;10.20;75.50
24426;DHT22;12611;44.446;26.000;2024-03-23T01:11:37;10.20;75.20
24426;DHT22;12611;44.446;26.000;2024-03-23T01:14:03;10.20;75.10
24426;DHT22;12611;44.446;26.000;2024-03-23T01:16:31;10.20;75.20
24426;DHT22;12611;44.446;26.000;2024-03-23T01:18:58;10.20;75.10
24426;DHT22;12611;44.446;26.000;2024-03-23T01:21:26;10.20;75.40
24426;DHT22;12611;44.446;26.000;2024-03-23T01:23:52;10.20;75.40
24426;DHT22;12611;44.446;26.000;2024-03-23T01:26:20;10.20;75.20
24426;DHT22;12611;44.446;26.000;2024-03-23T01:28:48;10.20;75.10
24426;DHT22;12611;44.446;26.000;2024-03-23T01:31:16;10.20;75.10
24426;DHT22;12611;44.446;26.000;2024-03-23T01:33:43;10.20;75.10
24426;DHT22;12611;44.446;26.000;2024-03-23T01:36:11;10.20;75.10
24426;DHT22;12611;44.446;26.000;2024-03-23T01:38:38;10.20;75.60
24426;DHT22;12611;44.446;26.000;2024-03-23T01:41:05;10.20;75.40
24426;DHT22;12611;44.446;26.000;2024-03-23T01:43:32;10.20;75.90
24426;DHT22;12611;44.446;26.000;2024-03-23T01:46:01;10.20;76.90
24426;DHT22;12611;44.446;26.000;2024-03-23T01:48:28;10.20;76.10
24426;DHT22;12611;44.446;26.000;2024-03-23T01:50:55;10.20;76.10
24426;DHT22;12611;44.446;26.000;2024-03-23T01:53:22;10.10;76.00
24426;DHT22;12611;44.446;26.000;2024-03-23T01:55:51;10.20;76.30
24426;DHT22;12611;44.446;26.000;2024-03-23T01:58:17;10.10;76.30
24426;DHT22;12611;44.446;26.000;2024-03-23T02:00:45;10.10;76.60
24426;DHT22;12611;44.446;26.000;2024-03-23T02:03:27;10.10;76.30
24426;DHT22;12611;44.446;26.000;2024-03-23T02:05:56;10.10;77.20
24426;DHT22;12611;44.446;26.000;2024-03-23T02:08:23;10.10;76.10
24426;DHT22;12611;44.446;26.000;2024-03-23T02:10:51;10.10;76.10
24426;DHT22;12611;44.446;26.000;2024-03-23T02:13:18;10.10;76.30
24426;DHT22;12611;44.446;26.000;2024-03-23T02:15:46;10.10;76.30
24426;DHT22;12611;44.446;26.000;2024-03-23T02:18:13;10.10;76.40
24426;DHT22;12611;44.446;26.000;2024-03-23T02:20:42;10.10;76.40
24426;DHT22;12611;44.446;26.000;2024-03-23T02:23:14;10.00;76.40
24426;DHT22;12611;44.446;26.000;2024-03-23T02:25:42;10.00;76.30
24426;DHT22;12611;44.446;26.000;2024-03-23T02:28:09;10.00;76.40
24426;DHT22;12611;44.446;26.000;2024-03-23T02:30:37;10.00;76.30
24426;DHT22;12611;44.446;26.000;2024-03-23T02:33:04;10.00;76.30
24426;DHT22;12611;44.446;26.000;2024-03-23T02:35:31;10.00;76.30
24426;DHT22;12611;44.446;26.000;2024-03-23T02:37:58;9.90;76.30
24426;DHT22;12611;44.446;26.000;2024-03-23T02:40:28;9.90;76.20
24426;DHT22;12611;44.446;26.000;2024-03-23T02:42:55;9.90;76.20
24426;DHT22;12611;44.446;26.000;2024-03-23T02:45:22;9.90;76.10
24426;DHT22;12611;44.446;26.000;2024-03-23T02:47:49;9.90;76.00
24426;DHT22;12611;44.446;26.000;2024-03-23T02:50:18;9.90;75.90
24426;DHT22;12611;44.446;26.000;2024-03-23T02:52:45;9.90;75.90
24426;DHT22;12611;44.446;26.000;2024-03-23T02:55:12;9.90;75.90
24426;DHT22;12611;44.446;26.000;2024-03-23T02:57:40;9.90;75.80
24426;DHT22;12611;44.446;26.000;2024-03-23T03:00:09;9.90;75.80
24426;DHT22;12611;44.446;26.000;2024-03-23T03:02:37;9.90;75.80
24426;DHT22;12611;44.446;26.000;2024-03-23T03:05:05;9.90;75.90
24426;DHT22;12611;44.446;26.000;2024-03-23T03:07:32;9.90;75.90
24426;DHT22;12611;44.446;26.000;2024-03-23T03:10:00;9.80;76.00
24426;DHT22;12611;44.446;26.000;2024-03-23T03:12:26;9.80;76.20
24426;DHT22;12611;44.446;26.000;2024-03-23T03:14:55;9.80;76.30
24426;DHT22;12611;44.446;26.000;2024-03-23T03:17:22;9.70;76.30
24426;DHT22;12611;44.446;26.000;2024-03-23T03:19:50;9.70;76.40
24426;DHT22;12611;44.446;26.000;2024-03-23T03:22:21;9.60;76.50
24426;DHT22;12611;44.446;26.000;2024-03-23T03:24:50;9.60;76.60
24426;DHT22;12611;44.446;26.000;2024-03-23T03:27:16;9.50;76.80
24426;DHT22;12611;44.446;26.000;2024-03-23T03:29:44;9.50;76.90
24426;DHT22;12611;44.446;26.000;2024-03-23T03:32:12;9.50;77.10
24426;DHT22;12611;44.446;26.000;2024-03-23T03:34:40;9.40;77.30
24426;DHT22;12611;44.446;26.000;2024-03-23T03:37:06;9.40;77.40
24426;DHT22;12611;44.446;26.000;2024-03-23T03:39:34;9.40;77.40
24426;DHT22;12611;44.446;26.000;2024-03-23T03:42:01;9.30;77.30
24426;DHT22;12611;44.446;26.000;2024-03-23T03:44:32;9.30;77.40
24426;DHT22;12611;44.446;26.000;2024-03-23T03:46:59;9.30;77.50
24426;DHT22;12611;44.446;26.000;2024-03-23T03:49:28;9.30;77.60
24426;DHT22;12611;44.446;26.000;2024-03-23T03:51:55;9.20;77.70
24426;DHT22;12611;44.446;26.000;2024-03-23T03:54:23;9.20;77.70
24426;DHT22;12611;44.446;26.000;2024-03-23T03:56:49;9.20;77.70
24426;DHT22;12611;44.446;26.000;2024-03-23T03:59:17;9.20;77.70
24426;DHT22;12611;44.446;26.000;2024-03-23T04:01:44;9.20;77.70
24426;DHT22;12611;44.446;26.000;2024-03-23T04:04:11;9.10;77.80
24426;DHT22;12611;44.446;26.000;2024-03-23T04:06:42;9.10;77.80
24426;DHT22;12611;44.446;26.000;2024-03-23T04:09:10;9.10;77.80
24426;DHT22;12611;44.446;26.000;2024-03-23T04:11:36;9.10;78.00
24426;DHT22;12611;44.446;26.000;2024-03-23T04:14:04;9.10;78.10
24426;DHT22;12611;44.446;26.000;2024-03-23T04:16:35;9.00;77.90
24426;DHT22;12611;44.446;26.000;2024-03-23T04:19:03;9.00;78.00
24426;DHT22;12611;44.446;26.000;2024-03-23T04:21:30;9.00;78.10
24426;DHT22;12611;44.446;26.000;2024-03-23T04:23:59;9.00;78.00
24426;DHT22;12611;44.446;26.000;2024-03-23T04:26:26;9.00;78.00
24426;DHT22;12611;44.446;26.000;2024-03-23T04:28:54;9.00;78.30
24426;DHT22;12611;44.446;26.000;2024-03-23T04:31:21;9.00;78.40
24426;DHT22;12611;44.446;26.000;2024-03-23T04:33:48;9.00;78.40
24426;DHT22;12611;44.446;26.000;2024-03-23T04:36:16;9.00;78.50
24426;DHT22;12611;44.446;26.000;2024-03-23T04:38:42;9.00;78.60
24426;DHT22;12611;44.446;26.000;2024-03-23T04:41:13;9.00;79.50
24426;DHT22;12611;44.446;26.000;2024-03-23T04:43:39;9.00;78.70
24426;DHT22;12611;44.446;26.000;2024-03-23T04:46:07;9.00;78.80
24426;DHT22;12611;44.446;26.000;2024-03-23T04:48:35;9.00;78.70
24426;DHT22;12611;44.446;26.000;2024-03-23T04:51:04;9.10;78.80
24426;DHT22;12611;44.446;26.000;2024-03-23T04:53:31;9.10;78.70
24426;DHT22;12611;44.446;26.000;2024-03-23T04:55:59;9.10;78.80
24426;DHT22;12611;44.446;26.000;2024-03-23T04:58:28;9.20;78.80
24426;DHT22;12611;44.446;26.000;2024-03-23T05:00:55;9.20;78.80
24426;DHT22;12611;44.446;26.000;2024-03-23T05:03:23;9.20;78.90
24426;DHT22;12611;44.446;26.000;2024-03-23T05:05:50;9.30;79.00
24426;DHT22;12611;44.446;26.000;2024-03-23T05:08:18;9.30;79.00
24426;DHT22;12611;44.446;26.000;2024-03-23T05:10:44;9.30;79.00
24426;DHT22;12611;44.446;26.000;2024-03-23T05:13:12;9.40;79.10
24426;DHT22;12611;44.446;26.000;2024-03-23T05:15:40;9.40;79.20
24426;DHT22;12611;44.446;26.000;2024-03-23T05:18:08;9.40;79.30
24426;DHT22;12611;44.446;26.000;2024-03-23T05:20:35;9.40;79.20
24426;DHT22;12611;44.446;26.000;2024-03-23T05:23:04;9.40;79.50
24426;DHT22;12611;44.446;26.000;2024-03-23T05:25:31;9.40;79.70
24426;DHT22;12611;44.446;26.000;2024-03-23T05:27:58;9.40;79.50
24426;DHT22;12611;44.446;26.000;2024-03-23T05:30:25;9.40;79.60
24426;DHT22;12611;44.446;26.000;2024-03-23T05:32:54;9.50;79.40
24426;DHT22;12611;44.446;26.000;2024-03-23T05:35:21;9.40;79.70
24426;DHT22;12611;44.446;26.000;2024-03-23T05:37:49;9.50;79.70
24426;DHT22;12611;44.446;26.000;2024-03-23T05:40:15;9.50;79.70
24426;DHT22;12611;44.446;26.000;2024-03-23T05:42:43;9.50;80.50
24426;DHT22;12611;44.446;26.000;2024-03-23T05:45:10;9.50;79.70
24426;DHT22;12611;44.446;26.000;2024-03-23T05:47:38;9.60;79.80
24426;DHT22;12611;44.446;26.000;2024-03-23T05:50:07;9.60;79.80
24426;DHT22;12611;44.446;26.000;2024-03-23T05:52:37;9.70;79.90
24426;DHT22;12611;44.446;26.000;2024-03-23T05:55:05;9.70;79.90
24426;DHT22;12611;44.446;26.000;2024-03-23T05:57:32;9.80;79.90
24426;DHT22;12611;44.446;26.000;2024-03-23T06:00:00;9.80;80.00
24426;DHT22;12611;44.446;26.000;2024-03-23T06:02:26;9.90;80.00
24426;DHT22;12611;44.446;26.000;2024-03-23T06:04:54;10.00;80.00
24426;DHT22;12611;44.446;26.000;2024-03-23T06:07:22;10.00;80.00
24426;DHT22;12611;44.446;26.000;2024-03-23T06:09:50;10.10;79.80
24426;DHT22;12611;44.446;26.000;2024-03-23T06:12:17;10.10;79.50
24426;DHT22;12611;44.446;26.000;2024-03-23T06:14:44;10.20;79.60
24426;DHT22;12611;44.446;26.000;2024-03-23T06:17:11;10.20;79.50
24426;DHT22;12611;44.446;26.000;2024-03-23T06:19:39;10.30;79.70
24426;DHT22;12611;44.446;26.000;2024-03-23T06:22:06;10.30;79.60
24426;DHT22;12611;44.446;26.000;2024-03-23T06:24:35;10.40;79.50
24426;DHT22;12611;44.446;26.000;2024-03-23T06:27:02;10.50;79.80
24426;DHT22;12611;44.446;26.000;2024-03-23T06:29:30;10.50;79.70
24426;DHT22;12611;44.446;26.000;2024-03-23T06:31:57;10.60;79.60
24426;DHT22;12611;44.446;26.000;2024-03-23T06:34:25;10.70;79.50
24426;DHT22;12611;44.446;26.000;2024-03-23T06:36:52;10.80;79.30
24426;DHT22;12611;44.446;26.000;2024-03-23T06:39:19;10.90;79.40
24426;DHT22;12611;44.446;26.000;2024-03-23T06:41:53;11.00;79.50
24426;DHT22;12611;44.446;26.000;2024-03-23T06:44:21;11.10;79.30
24426;DHT22;12611;44.446;26.000;2024-03-23T06:46:47;11.20;79.00
24426;DHT22;12611;44.446;26.000;2024-03-23T06:49:15;11.30;79.00
24426;DHT22;12611;44.446;26.000;2024-03-23T06:51:42;11.40;78.80
24426;DHT22;12611;44.446;26.000;2024-03-23T06:54:10;11.50;78.60
24426;DHT22;12611;44.446;26.000;2024-03-23T06:56:37;11.60;79.40
24426;DHT22;12611;44.446;26.000;2024-03-23T06:59:06;11.70;78.30
24426;DHT22;12611;44.446;26.000;2024-03-23T07:01:33;11.80;78.30
24426;DHT22;12611;44.446;26.000;2024-03-23T07:04:01;11.90;78.30
24426;DHT22;12611;44.446;26.000;2024-03-23T07:06:28;12.00;77.60
24426;DHT22;12611;44.446;26.000;2024-03-23T07:08:56;12.10;77.20
24426;DHT22;12611;44.446;26.000;2024-03-23T07:11:23;12.20;76.10
24426;DHT22;12611;44.446;26.000;2024-03-23T07:13:53;12.30;76.10
24426;DHT22;12611;44.446;26.000;2024-03-23T07:16:22;12.40;75.90
24426;DHT22;12611;44.446;26.000;2024-03-23T07:18:50;12.50;76.00
24426;DHT22;12611;44.446;26.000;2024-03-23T07:21:17;12.60;74.80
24426;DHT22;12611;44.446;26.000;2024-03-23T07:23:44;12.80;75.00
24426;DHT22;12611;44.446;26.000;2024-03-23T07:26:11;12.90;74.80
24426;DHT22;12611;44.446;26.000;2024-03-23T07:28:39;12.90;74.30
24426;DHT22;12611;44.446;26.000;2024-03-23T07:31:11;13.10;74.30
24426;DHT22;12611;44.446;26.000;2024-03-23T07:33:45;13.20;74.00
24426;DHT22;12611;44.446;26.000;2024-03-23T07:36:12;13.30;73.80
24426;DHT22;12611;44.446;26.000;2024-03-23T07:38:41;13.40;73.80
24426;DHT22;12611;44.446;26.000;2024-03-23T07:41:08;13.40;73.10
24426;DHT22;12611;44.446;26.000;2024-03-23T07:43:37;13.50;72.90
24426;DHT22;12611;44.446;26.000;2024-03-23T07:46:04;13.60;72.90
24426;DHT22;12611;44.446;26.000;2024-03-23T07:48:32;13.60;71.30
24426;DHT22;12611;44.446;26.000;2024-03-23T07:51:01;13.80;72.00
24426;DHT22;12611;44.446;26.000;2024-03-23T07:53:31;13.90;72.20
24426;DHT22;12611;44.446;26.000;2024-03-23T07:55:59;14.00;71.90
24426;DHT22;12611;44.446;26.000;2024-03-23T07:58:27;14.10;71.60
24426;DHT22;12611;44.446;26.000;2024-03-23T08:00:54;14.20;70.80
24426;DHT22;12611;44.446;26.000;2024-03-23T08:03:22;14.30;70.60
24426;DHT22;12611;44.446;26.000;2024-03-23T08:05:49;14.40;67.70
24426;DHT22;12611;44.446;26.000;2024-03-23T08:08:18;14.40;67.50
24426;DHT22;12611;44.446;26.000;2024-03-23T08:10:49;14.60;67.90
24426;DHT22;12611;44.446;26.000;2024-03-23T08:13:16;14.60;67.90
24426;DHT22;12611;44.446;26.000;2024-03-23T08:15:43;14.70;67.40
24426;DHT22;12611;44.446;26.000;2024-03-23T08:18:13;14.80;66.40
24426;DHT22;12611;44.446;26.000;2024-03-23T08:20:39;14.90;67.00
24426;DHT22;12611;44.446;26.000;2024-03-23T08:23:08;14.90;65.30
24426;DHT22;12611;44.446;26.000;2024-03-23T08:25:36;15.00;65.50
24426;DHT22;12611;44.446;26.000;2024-03-23T08:28:04;15.10;66.30
24426;DHT22;12611;44.446;26.000;2024-03-23T08:30:31;15.10;65.10
24426;DHT22;12611;44.446;26.000;2024-03-23T08:32:58;15.20;64.90
24426;DHT22;12611;44.446;26.000;2024-03-23T08:35:25;15.30;65.20
24426;DHT22;12611;44.446;26.000;2024-03-23T08:37:53;15.30;65.20
24426;DHT22;12611;44.446;26.000;2024-03-23T08:40:19;15.40;65.20
24426;DHT22;12611;44.446;26.000;2024-03-23T08:42:49;15.40;65.00
24426;DHT22;12611;44.446;26.000;2024-03-23T08:45:17;15.50;64.50
24426;DHT22;12611;44.446;26.000;2024-03-23T08:47:45;15.60;63.90
24426;DHT22;12611;44.446;26.000;2024-03-23T08:50:12;15.60;62.90
24426;DHT22;12611;44.446;26.000;2024-03-23T08:52:39;15.60;63.20
24426;DHT22;12611;44.446;26.000;2024-03-23T08:55:07;15.70;63.50
24426;DHT22;12611;44.446;26.000;2024-03-23T08:57:36;15.80;62.70
24426;DHT22;12611;44.446;26.000;2024-03-23T09:00:05;15.80;61.40
24426;DHT22;12611;44.446;26.000;2024-03-23T09:02:35;15.90;61.90
24426;DHT22;12611;44.446;26.000;2024-03-23T09:05:01;15.90;61.30
24426;DHT22;12611;44.446;26.000;2024-03-23T09:07:31;16.00;62.00
24426;DHT22;12611;44.446;26.000;2024-03-23T09:09:57;16.00;60.80
24426;DHT22;12611;44.446;26.000;2024-03-23T09:12:25;16.10;60.80
24426;DHT22;12611;44.446;26.000;2024-03-23T09:14:52;16.20;60.70
24426;DHT22;12611;44.446;26.000;2024-03-23T09:17:21;16.30;60.60
24426;DHT22;12611;44.446;26.000;2024-03-23T09:19:48;16.30;60.10
24426;DHT22;12611;44.446;26.000;2024-03-23T09:22:16;16.40;59.70
24426;DHT22;12611;44.446;26.000;2024-03-23T09:24:42;16.40;58.40
24426;DHT22;12611;44.446;26.000;2024-03-23T09:27:10;16.50;59.10
24426;DHT22;12611;44.446;26.000;2024-03-23T09:29:37;16.60;58.40
24426;DHT22;12611;44.446;26.000;2024-03-23T09:32:05;16.60;58.20
24426;DHT22;12611;44.446;26.000;2024-03-23T09:34:34;16.70;58.80
24426;DHT22;12611;44.446;26.000;2024-03-23T09:37:02;16.80;58.30
24426;DHT22;12611;44.446;26.000;2024-03-23T09:39:28;16.90;58.90
24426;DHT22;12611;44.446;26.000;2024-03-23T09:41:58;16.90;58.30
24426;DHT22;12611;44.446;26.000;2024-03-23T09:44:26;17.00;56.70
24426;DHT22;12611;44.446;26.000;2024-03-23T09:46:55;17.10;56.30
24426;DHT22;12611;44.446;26.000;2024-03-23T09:49:22;17.10;55.70
24426;DHT22;12611;44.446;26.000;2024-03-23T09:51:51;17.10;55.20
24426;DHT22;12611;44.446;26.000;2024-03-23T09:54:18;17.20;54.30
24426;DHT22;12611;44.446;26.000;2024-03-23T09:56:46;17.20;54.40
24426;DHT22;12611;44.446;26.000;2024-03-23T09:59:13;17.30;53.60
24426;DHT22;12611;44.446;26.000;2024-03-23T10:01:40;17.30;53.20
24426;DHT22;12611;44.446;26.000;2024-03-23T10:04:07;17.40;52.60
24426;DHT22;12611;44.446;26.000;2024-03-23T10:06:35;17.40;52.40
24426;DHT22;12611;44.446;26.000;2024-03-23T10:09:16;17.50;53.10
24426;DHT22;12611;44.446;26.000;2024-03-23T10:11:44;17.50;51.60
24426;DHT22;12611;44.446;26.000;2024-03-23T10:14:29;17.60;51.80
24426;DHT22;12611;44.446;26.000;2024-03-23T10:17:12;17.70;52.80
24426;DHT22;12611;44.446;26.000;2024-03-23T10:19:40;17.80;52.40
24426;DHT22;12611;44.446;26.000;2024-03-23T10:22:09;17.80;51.70
24426;DHT22;12611;44.446;26.000;2024-03-23T10:24:37;17.80;51.10
24426;DHT22;12611;44.446;26.000;2024-03-23T10:27:05;17.90;51.30
24426;DHT22;12611;44.446;26.000;2024-03-23T10:29:32;18.00;51.30
24426;DHT22;12611;44.446;26.000;2024-03-23T10:32:09;18.00;49.70
24426;DHT22;12611;44.446;26.000;2024-03-23T10:34:36;18.10;50.20
24426;DHT22;12611;44.446;26.000;2024-03-23T10:37:05;18.10;50.70
24426;DHT22;12611;44.446;26.000;2024-03-23T10:39:33;18.20;50.70
24426;DHT22;12611;44.446;26.000;2024-03-23T10:42:07;18.30;49.20
24426;DHT22;12611;44.446;26.000;2024-03-23T10:44:34;18.30;49.30
24426;DHT22;12611;44.446;26.000;2024-03-23T10:47:03;18.40;49.30
24426;DHT22;12611;44.446;26.000;2024-03-23T10:49:31;18.40;48.70
24426;DHT22;12611;44.446;26.000;2024-03-23T10:52:00;18.40;48.10
24426;DHT22;12611;44.446;26.000;2024-03-23T10:54:27;18.50;48.50
24426;DHT22;12611;44.446;26.000;2024-03-23T10:56:59;18.60;48.90
24426;DHT22;12611;44.446;26.000;2024-03-23T10:59:29;18.60;48.20
24426;DHT22;12611;44.446;26.000;2024-03-23T11:01:58;18.70;47.50
24426;DHT22;12611;44.446;26.000;2024-03-23T11:04:33;18.80;48.00
24426;DHT22;12611;44.446;26.000;2024-03-23T11:07:01;18.80;49.40
24426;DHT22;12611;44.446;26.000;2024-03-23T11:09:43;18.90;46.70
24426;DHT22;12611;44.446;26.000;2024-03-23T11:12:26;18.90;46.40
24426;DHT22;12611;44.446;26.000;2024-03-23T11:14:56;19.00;45.30
24426;DHT22;12611;44.446;26.000;2024-03-23T11:17:25;19.00;44.90
24426;DHT22;12611;44.446;26.000;2024-03-23T11:19:56;19.10;46.10
24426;DHT22;12611;44.446;26.000;2024-03-23T11:22:43;19.10;46.00
24426;DHT22;12611;44.446;26.000;2024-03-23T11:25:14;19.20;45.80
24426;DHT22;12611;44.446;26.000;2024-03-23T11:27:43;19.30;45.10
24426;DHT22;12611;44.446;26.000;2024-03-23T11:30:13;19.30;44.70
24426;DHT22;12611;44.446;26.000;2024-03-23T11:32:42;19.40;45.30
24426;DHT22;12611;44.446;26.000;2024-03-23T11:35:09;19.50;45.60
24426;DHT22;12611;44.446;26.000;2024-03-23T11:37:37;19.60;44.80
24426;DHT22;12611;44.446;26.000;2024-03-23T11:40:20;19.70;45.30
24426;DHT22;12611;44.446;26.000;2024-03-23T11:42:55;19.80;45.20
24426;DHT22;12611;44.446;26.000;2024-03-23T11:45:24;19.80;45.30
24426;DHT22;12611;44.446;26.000;2024-03-23T11:48:03;19.90;44.20
24426;DHT22;12611;44.446;26.000;2024-03-23T11:50:29;19.90;45.10
24426;DHT22;12611;44.446;26.000;2024-03-23T11:53:13;20.00;43.30
24426;DHT22;12611;44.446;26.000;2024-03-23T11:55:42;20.00;43.40
24426;DHT22;12611;44.446;26.000;2024-03-23T11:58:10;20.00;43.40
24426;DHT22;12611;44.446;26.000;2024-03-23T12:00:39;20.20;44.10
24426;DHT22;12611;44.446;26.000;2024-03-23T12:03:07;20.20;43.90
24426;DHT22;12611;44.446;26.000;2024-03-23T12:05:34;20.20;42.70
24426;DHT22;12611;44.446;26.000;2024-03-23T12:08:21;20.30;42.60
24426;DHT22;12611;44.446;26.000;2024-03-23T12:10:50;20.30;43.00
24426;DHT22;12611;44.446;26.000;2024-03-23T12:13:19;20.40;43.80
24426;DHT22;12611;44.446;26.000;2024-03-23T12:15:49;20.50;43.40
24426;DHT22;12611;44.446;26.000;2024-03-23T12:18:17;20.60;43.80
24426;DHT22;12611;44.446;26.000;2024-03-23T12:20:44;20.60;43.80
24426;DHT22;12611;44.446;26.000;2024-03-23T12:23:12;20.70;43.70
24426;DHT22;12611;44.446;26.000;2024-03-23T12:25:39;20.70;43.10
24426;DHT22;12611;44.446;26.000;2024-03-23T12:28:07;20.90;43.40
24426;DHT22;12611;44.446;26.000;2024-03-23T12:30:35;20.90;43.40
24426;DHT22;12611;44.446;26.000;2024-03-23T12:33:04;20.90;43.20
24426;DHT22;12611;44.446;26.000;2024-03-23T12:35:32;21.00;43.40
24426;DHT22;12611;44.446;26.000;2024-03-23T12:37:59;21.00;43.70
24426;DHT22;12611;44.446;26.000;2024-03-23T12:40:26;21.10;43.60
24426;DHT22;12611;44.446;26.000;2024-03-23T12:42:58;21.10;43.10
24426;DHT22;12611;44.446;26.000;2024-03-23T12:45:29;21.20;43.40
24426;DHT22;12611;44.446;26.000;2024-03-23T12:47:57;21.30;43.50
24426;DHT22;12611;44.446;26.000;2024-03-23T12:50:25;21.40;43.30
24426;DHT22;12611;44.446;26.000;2024-03-23T12:52:53;21.50;43.10
24426;DHT22;12611;44.446;26.000;2024-03-23T12:55:19;21.70;43.70
24426;DHT22;12611;44.446;26.000;2024-03-23T12:57:47;21.90;44.10
24426;DHT22;12611;44.446;26.000;2024-03-23T13:00:15;22.00;43.40
24426;DHT22;12611;44.446;26.000;2024-03-23T13:02:43;22.20;43.40
24426;DHT22;12611;44.446;26.000;2024-03-23T13:05:10;22.30;44.00
24426;DHT22;12611;44.446;26.000;2024-03-23T13:07:39;22.30;43.60
24426;DHT22;12611;44.446;26.000;2024-03-23T13:10:07;22.40;42.80
24426;DHT22;12611;44.446;26.000;2024-03-23T13:12:36;22.60;43.50
24426;DHT22;12611;44.446;26.000;2024-03-23T13:15:03;22.70;42.40
24426;DHT22;12611;44.446;26.000;2024-03-23T13:17:31;22.80;41.80
24426;DHT22;12611;44.446;26.000;2024-03-23T13:19:58;23.10;42.40
24426;DHT22;12611;44.446;26.000;2024-03-23T13:22:26;23.40;42.40
24426;DHT22;12611;44.446;26.000;2024-03-23T13:24:54;23.50;41.60
24426;DHT22;12611;44.446;26.000;2024-03-23T13:27:22;23.70;41.60
24426;DHT22;12611;44.446;26.000;2024-03-23T13:29:49;24.00;42.60
24426;DHT22;12611;44.446;26.000;2024-03-23T13:32:16;24.10;40.80
24426;DHT22;12611;44.446;26.000;2024-03-23T13:34:43;24.40;40.70
24426;DHT22;12611;44.446;26.000;2024-03-23T13:37:11;24.70;39.30
24426;DHT22;12611;44.446;26.000;2024-03-23T13:39:37;25.20;39.90
24426;DHT22;12611;44.446;26.000;2024-03-23T13:42:07;25.70;39.20
24426;DHT22;12611;44.446;26.000;2024-03-23T13:44:35;26.20;38.70
24426;DHT22;12611;44.446;26.000;2024-03-23T13:47:03;26.70;37.20
24426;DHT22;12611;44.446;26.000;2024-03-23T13:49:30;27.30;36.80
24426;DHT22;12611;44.446;26.000;2024-03-23T13:52:00;28.00;35.80
24426;DHT22;12611;44.446;26.000;2024-03-23T13:54:27;28.40;34.50
24426;DHT22;12611;44.446;26.000;2024-03-23T13:56:56;28.80;33.70
24426;DHT22;12611;44.446;26.000;2024-03-23T13:59:24;29.80;32.90
24426;DHT22;12611;44.446;26.000;2024-03-23T14:01:52;30.30;31.10
24426;DHT22;12611;44.446;26.000;2024-03-23T14:04:19;31.70;31.40
24426;DHT22;12611;44.446;26.000;2024-03-23T14:06:46;33.20;30.10
24426;DHT22;12611;44.446;26.000;2024-03-23T14:09:13;32.30;29.60
24426;DHT22;12611;44.446;26.000;2024-03-23T14:11:46;31.60;30.50
24426;DHT22;12611;44.446;26.000;2024-03-23T14:14:13;32.40;29.50
24426;DHT22;12611;44.446;26.000;2024-03-23T14:16:44;31.50;30.00
24426;DHT22;12611;44.446;26.000;2024-03-23T14:19:11;30.90;30.20
24426;DHT22;12611;44.446;26.000;2024-03-23T14:21:39;30.00;31.10
24426;DHT22;12611;44.446;26.000;2024-03-23T14:24:06;29.30;31.30
24426;DHT22;12611;44.446;26.000;2024-03-23T14:26:35;28.50;31.70
24426;DHT22;12611;44.446;26.000;2024-03-23T14:29:02;28.00;32.20
24426;DHT22;12611;44.446;26.000;2024-03-23T14:31:30;27.40;32.60
24426;DHT22;12611;44.446;26.000;2024-03-23T14:33:58;26.80;33.60
24426;DHT22;12611;44.446;26.000;2024-03-23T14:36:26;26.40;34.00
24426;DHT22;12611;44.446;26.000;2024-03-23T14:38:53;26.20;34.70
24426;DHT22;12611;44.446;26.000;2024-03-23T14:41:21;25.80;34.80
24426;DHT22;12611;44.446;26.000;2024-03-23T14:43:48;25.40;35.00
24426;DHT22;12611;44.446;26.000;2024-03-23T14:46:17;24.90;35.00
24426;DHT22;12611;44.446;26.000;2024-03-23T14:48:44;24.70;35.70
24426;DHT22;12611;44.446;26.000;2024-03-23T14:51:14;24.50;36.10
24426;DHT22;12611;44.446;26.000;2024-03-23T14:53:44;24.20;36.50
24426;DHT22;12611;44.446;26.000;2024-03-23T14:56:12;24.00;36.90
24426;DHT22;12611;44.446;26.000;2024-03-23T14:58:39;24.00;37.10
24426;DHT22;12611;44.446;26.000;2024-03-23T15:01:08;23.80;37.50
24426;DHT22;12611;44.446;26.000;2024-03-23T15:15:40;23.50;37.10
24426;DHT22;12611;44.446;26.000;2024-03-23T15:18:10;23.40;38.80
24426;DHT22;12611;44.446;26.000;2024-03-23T15:20:38;23.00;38.70
24426;DHT22;12611;44.446;26.000;2024-03-23T15:23:06;22.80;38.90
24426;DHT22;12611;44.446;26.000;2024-03-23T15:25:34;22.70;39.30
24426;DHT22;12611;44.446;26.000;2024-03-23T15:28:02;22.50;39.80
24426;DHT22;12611;44.446;26.000;2024-03-23T15:30:28;22.30;39.80
24426;DHT22;12611;44.446;26.000;2024-03-23T15:32:58;22.10;39.80
24426;DHT22;12611;44.446;26.000;2024-03-23T15:35:25;22.00;40.30
24426;DHT22;12611;44.446;26.000;2024-03-23T15:37:52;21.80;40.70
24426;DHT22;12611;44.446;26.000;2024-03-23T15:40:19;21.60;40.80
24426;DHT22;12611;44.446;26.000;2024-03-23T15:42:47;21.50;41.20
24426;DHT22;12611;44.446;26.000;2024-03-23T15:45:15;21.40;41.50
24426;DHT22;12611;44.446;26.000;2024-03-23T15:47:43;21.20;41.60
24426;DHT22;12611;44.446;26.000;2024-03-23T15:50:11;21.10;42.00
24426;DHT22;12611;44.446;26.000;2024-03-23T15:52:38;21.00;42.30
24426;DHT22;12611;44.446;26.000;2024-03-23T15:55:06;21.00;42.70
24426;DHT22;12611;44.446;26.000;2024-03-23T15:57:36;20.80;42.70
24426;DHT22;12611;44.446;26.000;2024-03-23T16:00:04;20.70;42.90
24426;DHT22;12611;44.446;26.000;2024-03-23T16:02:32;20.60;43.10
24426;DHT22;12611;44.446;26.000;2024-03-23T16:04:59;20.50;43.40
24426;DHT22;12611;44.446;26.000;2024-03-23T16:07:30;20.40;43.70
24426;DHT22;12611;44.446;26.000;2024-03-23T16:09:57;20.30;43.80
24426;DHT22;12611;44.446;26.000;2024-03-23T16:12:31;20.20;44.00
24426;DHT22;12611;44.446;26.000;2024-03-23T16:14:58;20.10;44.40
24426;DHT22;12611;44.446;26.000;2024-03-23T16:17:25;20.00;44.50
24426;DHT22;12611;44.446;26.000;2024-03-23T16:19:52;19.90;44.70
24426;DHT22;12611;44.446;26.000;2024-03-23T16:22:20;19.80;44.90
24426;DHT22;12611;44.446;26.000;2024-03-23T16:24:49;19.70;44.90
24426;DHT22;12611;44.446;26.000;2024-03-23T16:27:17;19.60;45.20
24426;DHT22;12611;44.446;26.000;2024-03-23T16:29:43;19.60;45.30
24426;DHT22;12611;44.446;26.000;2024-03-23T16:32:11;19.50;45.40